createdAt,value
2023-05-10T00:02:05.738Z,74.97
2023-05-10T00:04:32.591Z,75.24
2023-05-10T00:06:59.399Z,75.42
2023-05-10T00:09:26.267Z,76.50
2023-05-10T00:11:53.143Z,76.59
2023-05-10T00:14:20.206Z,76.79
2023-05-10T00:16:47.285Z,76.40
2023-05-10T00:19:14.197Z,76.95
2023-05-10T00:21:41.135Z,76.72
2023-05-10T00:24:08.133Z,76.10
2023-05-10T00:26:35.009Z,76.10
2023-05-10T00:29:01.836Z,74.60
2023-05-10T00:31:28.609Z,76.07
2023-05-10T00:33:56.766Z,76.84
2023-05-10T00:36:23.644Z,76.59
2023-05-10T00:38:50.420Z,76.14
2023-05-10T00:41:17.622Z,76.79
2023-05-10T00:43:44.505Z,77.86
2023-05-10T00:46:11.857Z,77.60
2023-05-10T00:48:39.085Z,77.18
2023-05-10T00:51:06.021Z,77.04
2023-05-10T00:53:33.832Z,76.64
2023-05-10T00:56:00.967Z,76.27
2023-05-10T00:58:29.268Z,76.67
2023-05-10T01:00:59.467Z,76.39
2023-05-10T01:03:27.232Z,76.22
2023-05-10T01:05:54.288Z,75.83
2023-05-10T01:08:21.362Z,76.44
2023-05-10T01:10:50.127Z,76.24
2023-05-10T01:13:45.442Z,75.76
2023-05-10T01:16:12.736Z,75.94
2023-05-10T01:18:42.618Z,76.38
2023-05-10T01:21:12.418Z,76.34
2023-05-10T01:24:05.221Z,76.49
2023-05-10T01:27:19.541Z,76.51
2023-05-10T01:30:24.621Z,76.57
2023-05-10T01:33:01.727Z,76.07
2023-05-10T01:35:43.709Z,76.46
2023-05-10T01:38:34.135Z,76.26
2023-05-10T01:41:19.677Z,76.06
2023-05-10T01:44:35.826Z,76.45
2023-05-10T01:47:12.178Z,76.44
2023-05-10T01:50:03.140Z,76.76
2023-05-10T01:52:44.778Z,76.92
2023-05-10T01:55:17.562Z,76.62
2023-05-10T01:57:47.510Z,77.06
2023-05-10T02:00:17.400Z,77.18
2023-05-10T02:02:50.190Z,76.52
2023-05-10T02:05:18.468Z,77.26
2023-05-10T02:07:46.127Z,76.99
2023-05-10T02:10:14.530Z,77.00
2023-05-10T02:12:48.672Z,76.89
2023-05-10T02:15:23.348Z,76.58
2023-05-10T02:17:50.817Z,76.58
2023-05-10T02:20:19.654Z,76.41
2023-05-10T02:22:50.352Z,76.64
2023-05-10T02:25:21.042Z,76.50
2023-05-10T02:27:49.431Z,76.29
2023-05-10T02:30:18.068Z,76.60
2023-05-10T02:32:46.094Z,76.57
2023-05-10T02:35:13.873Z,76.68
2023-05-10T02:37:41.557Z,76.87
2023-05-10T02:40:10.278Z,76.96
2023-05-10T02:42:39.868Z,77.39
2023-05-10T02:45:13.017Z,77.37
2023-05-10T02:47:40.372Z,77.73
2023-05-10T02:50:08.149Z,77.35
2023-05-10T02:52:49.263Z,77.10
2023-05-10T02:55:17.841Z,77.46
2023-05-10T02:57:52.291Z,76.40
2023-05-10T03:00:19.471Z,76.45
2023-05-10T03:02:46.329Z,76.60
2023-05-10T03:05:13.203Z,77.24
2023-05-10T03:07:40.179Z,76.83
2023-05-10T03:10:07.911Z,76.70
2023-05-10T03:13:16.164Z,77.82
2023-05-10T03:16:10.103Z,77.01
2023-05-10T03:19:03.264Z,76.19
2023-05-10T03:21:31.667Z,76.76
2023-05-10T03:24:07.254Z,76.63
2023-05-10T03:26:34.602Z,76.92
2023-05-10T03:29:02.122Z,76.83
2023-05-10T03:31:28.981Z,76.52
2023-05-10T03:33:55.867Z,77.63
2023-05-10T03:36:22.721Z,77.71
2023-05-10T03:38:49.582Z,77.38
2023-05-10T03:41:16.547Z,77.08
2023-05-10T03:43:43.421Z,76.93
2023-05-10T03:46:10.562Z,76.55
2023-05-10T03:48:37.464Z,76.30
2023-05-10T03:51:04.537Z,76.35
2023-05-10T03:53:31.355Z,76.87
2023-05-10T03:55:58.168Z,76.32
2023-05-10T03:58:25.005Z,76.45
2023-05-10T04:00:52.960Z,76.76
2023-05-10T04:03:19.912Z,76.03
2023-05-10T04:05:46.764Z,76.49
2023-05-10T04:08:13.697Z,76.53
2023-05-10T04:10:40.699Z,76.48
2023-05-10T04:13:07.599Z,76.80
2023-05-10T04:15:34.749Z,76.34
2023-05-10T04:18:01.893Z,76.45
2023-05-10T04:20:28.956Z,76.64
2023-05-10T04:22:55.982Z,76.41
2023-05-10T04:25:22.778Z,76.63
2023-05-10T04:27:49.604Z,76.56
2023-05-10T04:30:16.563Z,76.98
2023-05-10T04:32:43.638Z,76.35
2023-05-10T04:35:11.636Z,75.46
2023-05-10T04:37:38.547Z,76.15
2023-05-10T04:40:07.105Z,76.21
2023-05-10T04:42:34.111Z,76.03
2023-05-10T04:45:00.919Z,76.16
2023-05-10T04:47:27.810Z,76.59
2023-05-10T04:49:54.684Z,76.45
2023-05-10T04:52:21.712Z,76.20
2023-05-10T04:54:48.567Z,76.33
2023-05-10T04:57:15.590Z,76.85
2023-05-10T04:59:43.458Z,76.53
2023-05-10T05:02:10.339Z,76.99
2023-05-10T05:04:37.222Z,76.36
2023-05-10T05:07:04.043Z,76.31
2023-05-10T05:09:32.937Z,75.84
2023-05-10T05:12:00.357Z,76.12
2023-05-10T05:14:27.371Z,75.78
2023-05-10T05:16:54.633Z,74.96
2023-05-10T05:19:21.681Z,74.97
2023-05-10T05:21:48.515Z,75.45
2023-05-10T05:24:15.350Z,75.22
2023-05-10T05:26:42.465Z,75.07
2023-05-10T05:29:09.359Z,74.99
2023-05-10T05:31:36.261Z,74.19
2023-05-10T05:34:03.203Z,74.75
2023-05-10T05:36:30.002Z,74.43
2023-05-10T05:38:56.807Z,73.87
2023-05-10T05:41:24.988Z,73.84
2023-05-10T05:43:51.789Z,74.69
2023-05-10T05:46:18.695Z,74.07
2023-05-10T05:48:45.515Z,72.22
2023-05-10T05:51:12.440Z,72.42
2023-05-10T05:53:39.265Z,72.70
2023-05-10T05:56:06.275Z,72.08
2023-05-10T05:58:33.115Z,71.72
2023-05-10T06:00:59.993Z,72.45
2023-05-10T06:03:26.973Z,72.18
2023-05-10T06:05:53.884Z,72.39
2023-05-10T06:08:21.297Z,72.02
2023-05-10T06:10:48.150Z,72.87
2023-05-10T06:13:16.592Z,72.74
2023-05-10T06:15:43.515Z,71.62
2023-05-10T06:18:10.486Z,71.61
2023-05-10T06:20:37.327Z,70.14
2023-05-10T06:23:04.199Z,70.21
2023-05-10T06:25:30.988Z,71.14
2023-05-10T06:27:58.926Z,70.02
2023-05-10T06:30:29.799Z,69.92
2023-05-10T06:32:57.622Z,70.22
2023-05-10T06:35:24.581Z,69.01
2023-05-10T06:37:52.386Z,70.13
2023-05-10T06:40:19.482Z,69.12
2023-05-10T06:42:47.333Z,69.76
2023-05-10T06:45:15.734Z,68.63
2023-05-10T06:47:43.259Z,68.74
2023-05-10T06:50:12.554Z,68.12
2023-05-10T06:52:40.110Z,69.06
2023-05-10T06:55:07.706Z,68.11
2023-05-10T06:57:34.624Z,68.01
2023-05-10T07:00:02.019Z,68.42
2023-05-10T07:02:29.494Z,67.87
2023-05-10T07:04:56.450Z,67.33
2023-05-10T07:07:23.306Z,67.39
2023-05-10T07:09:50.972Z,65.74
2023-05-10T07:12:18.028Z,66.05
2023-05-10T07:14:45.000Z,65.59
2023-05-10T07:17:11.864Z,66.03
2023-05-10T07:19:38.743Z,65.75
2023-05-10T07:22:05.601Z,66.50
2023-05-10T07:24:34.053Z,65.72
2023-05-10T07:27:00.935Z,66.02
2023-05-10T07:29:27.828Z,66.49
2023-05-10T07:31:56.498Z,64.51
2023-05-10T07:34:26.015Z,64.83
2023-05-10T07:36:53.288Z,64.31
2023-05-10T07:39:27.270Z,63.93
2023-05-10T07:41:56.028Z,63.01
2023-05-10T07:44:23.112Z,63.78
2023-05-10T07:46:50.046Z,63.91
2023-05-10T07:49:17.209Z,63.19
2023-05-10T07:51:44.303Z,62.34
2023-05-10T07:54:11.238Z,61.10
2023-05-10T07:56:38.132Z,61.97
2023-05-10T07:59:07.352Z,60.91
2023-05-10T08:01:35.559Z,62.54
2023-05-10T08:04:03.133Z,61.59
2023-05-10T08:06:30.956Z,58.63
2023-05-10T08:08:58.250Z,60.39
2023-05-10T08:11:25.626Z,57.28
2023-05-10T08:13:52.812Z,56.32
2023-05-10T08:16:20.338Z,55.77
2023-05-10T08:18:48.198Z,56.83
2023-05-10T08:21:16.413Z,58.61
2023-05-10T08:23:44.753Z,58.51
2023-05-10T08:26:12.045Z,54.57
2023-05-10T08:28:38.982Z,55.52
2023-05-10T08:31:06.795Z,55.98
2023-05-10T08:33:34.083Z,56.12
2023-05-10T08:36:00.976Z,57.59
2023-05-10T08:38:28.031Z,57.51
2023-05-10T08:40:59.818Z,57.56
2023-05-10T08:43:31.210Z,58.34
2023-05-10T08:46:03.913Z,58.23
2023-05-10T08:48:32.049Z,60.44
2023-05-10T08:51:02.972Z,62.34
2023-05-10T08:53:32.071Z,62.75
2023-05-10T08:55:59.138Z,62.62
2023-05-10T08:58:26.493Z,62.87
2023-05-10T09:00:53.864Z,63.94
2023-05-10T09:03:20.874Z,64.20
2023-05-10T09:05:49.453Z,62.65
2023-05-10T09:08:17.506Z,62.67
2023-05-10T09:10:49.303Z,62.24
2023-05-10T09:13:16.725Z,61.81
2023-05-10T09:15:45.379Z,60.53
2023-05-10T09:18:12.872Z,62.30
2023-05-10T09:20:39.918Z,61.86
2023-05-10T09:23:06.868Z,61.18
2023-05-10T09:25:38.138Z,59.55
2023-05-10T09:28:09.274Z,61.70
2023-05-10T09:30:36.813Z,58.82
2023-05-10T09:33:04.437Z,55.02
2023-05-10T09:35:33.773Z,57.96
2023-05-10T09:38:05.837Z,57.31
2023-05-10T09:40:33.529Z,58.39
2023-05-10T09:43:09.888Z,60.52
2023-05-10T09:45:38.969Z,59.38
2023-05-10T09:48:06.965Z,62.87
2023-05-10T09:50:35.102Z,63.44
2023-05-10T09:53:04.947Z,62.36
2023-05-10T09:55:47.402Z,62.61
2023-05-10T09:58:15.268Z,64.03
2023-05-10T10:00:45.702Z,63.01
2023-05-10T10:03:17.936Z,61.23
2023-05-10T10:05:46.220Z,60.52
2023-05-10T10:08:14.355Z,61.78
2023-05-10T10:10:42.324Z,61.85
2023-05-10T10:13:09.563Z,61.61
2023-05-10T10:15:36.674Z,60.23
2023-05-10T10:18:07.415Z,59.18
2023-05-10T10:20:34.776Z,58.28
2023-05-10T10:23:01.879Z,57.63
2023-05-10T10:25:29.222Z,60.04
2023-05-10T10:28:26.192Z,57.50
2023-05-10T10:30:57.034Z,58.36
2023-05-10T10:34:02.818Z,59.07
2023-05-10T10:36:31.317Z,59.20
2023-05-10T10:39:01.249Z,58.88
2023-05-10T10:41:37.097Z,60.11
2023-05-10T10:44:23.215Z,59.14
2023-05-10T10:47:25.449Z,58.29
2023-05-10T10:50:05.484Z,59.92
2023-05-10T10:52:37.464Z,58.52
2023-05-10T10:55:18.055Z,58.26
2023-05-10T10:57:48.009Z,57.33
2023-05-10T11:00:37.921Z,57.13
2023-05-10T11:03:10.082Z,57.92
2023-05-10T11:05:48.128Z,55.49
2023-05-10T11:08:32.129Z,56.24
2023-05-10T11:11:03.034Z,53.68
2023-05-10T11:13:32.692Z,52.72
2023-05-10T11:16:14.298Z,50.79
2023-05-10T11:18:41.588Z,51.24
2023-05-10T11:21:11.652Z,50.99
2023-05-10T11:23:44.298Z,50.85
2023-05-10T11:26:11.916Z,52.34
2023-05-10T11:28:49.684Z,53.68
2023-05-10T11:31:21.250Z,55.77
2023-05-10T11:33:54.660Z,55.02
2023-05-10T11:36:35.575Z,54.97
2023-05-10T11:39:03.832Z,57.09
2023-05-10T11:41:32.101Z,57.34
2023-05-10T11:43:59.906Z,56.92
2023-05-10T11:46:29.174Z,56.88
2023-05-10T11:49:02.624Z,58.51
2023-05-10T11:51:29.512Z,59.51
2023-05-10T11:53:58.123Z,59.23
2023-05-10T11:56:27.021Z,59.48
2023-05-10T11:58:57.287Z,60.32
2023-05-10T12:01:25.796Z,61.06
2023-05-10T12:03:55.206Z,60.38
2023-05-10T12:06:22.770Z,60.69
2023-05-10T12:08:54.559Z,60.30
2023-05-10T12:11:25.784Z,59.61
2023-05-10T12:13:52.714Z,60.93
2023-05-10T12:16:29.989Z,59.90
2023-05-10T12:19:01.622Z,60.03
2023-05-10T12:21:31.761Z,59.94
2023-05-10T12:24:04.612Z,59.75
2023-05-10T12:26:31.872Z,59.50
2023-05-10T12:29:19.217Z,59.00
2023-05-10T12:31:55.495Z,58.48
2023-05-10T12:34:36.223Z,59.55
2023-05-10T12:37:04.569Z,57.77
2023-05-10T12:39:45.142Z,59.77
2023-05-10T12:42:12.406Z,58.99
2023-05-10T12:44:40.648Z,58.54
2023-05-10T12:47:07.856Z,60.18
2023-05-10T12:49:35.082Z,59.34
2023-05-10T12:52:02.236Z,61.78
2023-05-10T12:54:29.143Z,60.57
2023-05-10T12:56:56.006Z,60.09
2023-05-10T12:59:23.873Z,60.16
2023-05-10T13:01:50.756Z,60.17
2023-05-10T13:04:17.627Z,60.41
2023-05-10T13:06:44.515Z,60.30
2023-05-10T13:09:11.507Z,60.09
2023-05-10T13:11:38.452Z,58.81
2023-05-10T13:14:05.371Z,59.04
2023-05-10T13:16:32.726Z,58.40
2023-05-10T13:18:59.789Z,58.50
2023-05-10T13:21:26.791Z,57.99
2023-05-10T13:23:54.384Z,58.54
2023-05-10T13:26:21.242Z,59.06
2023-05-10T13:28:49.769Z,59.79
2023-05-10T13:31:16.824Z,59.81
2023-05-10T13:33:43.717Z,59.52
2023-05-10T13:36:10.523Z,59.44
2023-05-10T13:38:37.437Z,58.53
2023-05-10T13:41:04.476Z,59.83
2023-05-10T13:43:31.309Z,61.08
2023-05-10T13:45:58.269Z,62.39
2023-05-10T13:48:25.203Z,61.68
2023-05-10T13:50:52.062Z,62.16
2023-05-10T13:53:18.935Z,61.77
2023-05-10T13:55:45.729Z,63.93
2023-05-10T13:58:12.592Z,64.10
2023-05-10T14:00:39.460Z,62.06
2023-05-10T14:03:07.382Z,62.60
2023-05-10T14:05:34.322Z,63.82
2023-05-10T14:08:01.165Z,64.57
2023-05-10T14:10:28.047Z,64.82
2023-05-10T14:12:54.864Z,64.65
2023-05-10T14:15:21.843Z,63.55
2023-05-10T14:17:48.948Z,64.20
2023-05-10T14:20:15.984Z,63.54
2023-05-10T14:22:42.835Z,62.79
2023-05-10T14:25:10.293Z,63.15
2023-05-10T14:27:37.502Z,62.78
2023-05-10T14:30:04.816Z,62.83
2023-05-10T14:32:33.022Z,62.04
2023-05-10T14:35:00.500Z,63.54
2023-05-10T14:37:27.756Z,62.00
2023-05-10T14:39:54.953Z,62.95
2023-05-10T14:42:22.310Z,63.87
2023-05-10T14:44:49.191Z,64.60
2023-05-10T14:47:16.065Z,65.85
2023-05-10T14:49:42.943Z,64.87
2023-05-10T14:52:09.817Z,62.92
2023-05-10T14:54:36.698Z,64.15
2023-05-10T14:57:03.590Z,62.96
2023-05-10T14:59:30.403Z,62.33
2023-05-10T15:01:57.591Z,61.95
2023-05-10T15:04:25.997Z,61.55
2023-05-10T15:06:59.990Z,62.20
2023-05-10T15:09:28.423Z,61.58
2023-05-10T15:11:56.096Z,64.56
2023-05-10T15:14:24.208Z,63.98
2023-05-10T15:16:51.144Z,65.84
2023-05-10T15:19:18.004Z,65.26
2023-05-10T15:21:45.609Z,65.82
2023-05-10T15:24:12.496Z,64.32
2023-05-10T15:26:39.459Z,62.96
2023-05-10T15:29:06.307Z,62.78
2023-05-10T15:31:36.052Z,63.89
2023-05-10T15:34:03.017Z,64.95
2023-05-10T15:36:29.867Z,63.39
2023-05-10T15:38:56.869Z,62.38
2023-05-10T15:41:24.505Z,61.14
2023-05-10T15:43:51.418Z,61.64
2023-05-10T15:46:18.295Z,63.51
2023-05-10T15:48:45.200Z,63.27
2023-05-10T15:51:12.379Z,64.87
2023-05-10T15:53:46.573Z,66.55
2023-05-10T15:56:19.874Z,65.97
2023-05-10T15:58:46.789Z,66.85
2023-05-10T16:01:13.728Z,66.88
2023-05-10T16:03:40.644Z,67.38
2023-05-10T16:06:07.989Z,67.54
2023-05-10T16:08:35.417Z,68.72
2023-05-10T16:11:03.775Z,68.87
2023-05-10T16:13:30.691Z,69.14
2023-05-10T16:15:58.190Z,69.12
2023-05-10T16:18:25.300Z,69.22
2023-05-10T16:20:53.781Z,69.22
2023-05-10T16:23:20.848Z,71.09
2023-05-10T16:25:47.726Z,71.68
2023-05-10T16:28:14.541Z,71.96
2023-05-10T16:30:41.463Z,72.65
2023-05-10T16:33:08.403Z,72.40
2023-05-10T16:35:35.351Z,73.11
2023-05-10T16:38:02.219Z,74.30
2023-05-10T16:40:29.095Z,73.71
2023-05-10T16:42:56.083Z,73.12
2023-05-10T16:45:23.068Z,73.96
2023-05-10T16:47:49.977Z,73.51
2023-05-10T16:50:17.558Z,74.18
2023-05-10T16:52:44.509Z,73.03
2023-05-10T16:55:11.417Z,73.83
2023-05-10T16:57:38.210Z,73.41
2023-05-10T17:00:06.259Z,72.35
2023-05-10T17:02:33.210Z,72.24
2023-05-10T17:05:00.174Z,72.80
2023-05-10T17:07:29.320Z,72.78
2023-05-10T17:09:56.622Z,71.88
2023-05-10T17:12:23.850Z,72.26
2023-05-10T17:14:50.800Z,72.32
2023-05-10T17:17:17.658Z,71.56
2023-05-10T17:19:47.570Z,72.10
2023-05-10T17:22:14.358Z,71.67
2023-05-10T17:24:41.167Z,71.95
2023-05-10T17:27:08.295Z,70.92
2023-05-10T17:29:35.129Z,71.38
2023-05-10T17:32:02.100Z,71.51
2023-05-10T17:34:29.099Z,70.99
2023-05-10T17:36:55.906Z,71.82
2023-05-10T17:39:25.875Z,71.81
2023-05-10T17:41:52.727Z,71.92
2023-05-10T17:44:19.815Z,71.66
2023-05-10T17:46:46.762Z,71.99
2023-05-10T17:49:13.586Z,71.68
2023-05-10T17:51:43.868Z,71.40
2023-05-10T17:54:10.659Z,71.58
2023-05-10T17:56:37.648Z,72.04
2023-05-10T17:59:05.791Z,72.47
2023-05-10T18:01:32.819Z,72.21
2023-05-10T18:03:59.663Z,72.35
2023-05-10T18:06:26.791Z,72.45
2023-05-10T18:08:53.575Z,72.52
2023-05-10T18:11:20.397Z,72.59
2023-05-10T18:13:47.236Z,72.50
2023-05-10T18:16:14.265Z,72.04
2023-05-10T18:18:41.112Z,72.74
2023-05-10T18:21:08.036Z,72.97
2023-05-10T18:23:34.888Z,72.74
2023-05-10T18:26:02.431Z,73.15
2023-05-10T18:28:29.274Z,72.92
2023-05-10T18:30:56.199Z,73.11
2023-05-10T18:33:23.062Z,73.32
2023-05-10T18:35:56.035Z,73.73
2023-05-10T18:38:22.984Z,74.02
2023-05-10T18:40:49.783Z,74.01
2023-05-10T18:43:16.753Z,73.90
2023-05-10T18:45:43.902Z,74.43
2023-05-10T18:48:10.980Z,74.41
2023-05-10T18:50:37.922Z,74.14
2023-05-10T18:53:05.031Z,73.75
2023-05-10T18:55:32.066Z,73.81
2023-05-10T18:57:58.916Z,73.82
2023-05-10T19:00:28.346Z,75.31
2023-05-10T19:02:55.691Z,73.93
2023-05-10T19:05:28.289Z,73.89
2023-05-10T19:07:55.208Z,73.61
2023-05-10T19:10:22.362Z,72.90
2023-05-10T19:12:49.184Z,73.08
2023-05-10T19:15:19.205Z,72.79
2023-05-10T19:17:47.898Z,72.78
2023-05-10T19:20:15.799Z,73.02
2023-05-10T19:22:58.138Z,72.88
2023-05-10T19:25:29.791Z,72.42
2023-05-10T19:27:59.789Z,72.46
2023-05-10T19:30:26.964Z,72.92
2023-05-10T19:32:55.745Z,72.80
2023-05-10T19:35:24.070Z,72.54
2023-05-10T19:37:54.759Z,72.19
2023-05-10T19:40:22.745Z,72.74
2023-05-10T19:42:49.603Z,72.50
2023-05-10T19:45:21.902Z,72.68
2023-05-10T19:47:49.073Z,73.45
2023-05-10T19:50:16.842Z,73.28
2023-05-10T19:52:44.849Z,73.22
2023-05-10T19:55:15.560Z,73.27
2023-05-10T19:57:42.699Z,73.29
2023-05-10T20:00:10.615Z,72.79
2023-05-10T20:02:40.631Z,73.14
2023-05-10T20:05:08.117Z,73.07
2023-05-10T20:07:35.031Z,73.24
2023-05-10T20:10:02.789Z,73.17
2023-05-10T20:12:32.733Z,73.46
2023-05-10T20:14:59.653Z,73.40
2023-05-10T20:17:26.480Z,73.22
2023-05-10T20:19:53.331Z,73.45
2023-05-10T20:22:20.498Z,74.05
2023-05-10T20:24:48.163Z,73.85
2023-05-10T20:27:15.150Z,74.04
2023-05-10T20:29:45.622Z,74.45
2023-05-10T20:32:12.427Z,74.12
2023-05-10T20:34:39.463Z,73.89
2023-05-10T20:37:06.567Z,74.45
2023-05-10T20:39:33.701Z,74.26
2023-05-10T20:42:00.626Z,74.37
2023-05-10T20:44:27.596Z,75.31
2023-05-10T20:46:54.787Z,74.99
2023-05-10T20:49:21.861Z,74.90
2023-05-10T20:51:48.766Z,74.70
2023-05-10T20:54:15.686Z,74.13
2023-05-10T20:56:42.518Z,74.51
2023-05-10T20:59:09.353Z,74.40
2023-05-10T21:01:36.272Z,74.37
2023-05-10T21:04:03.695Z,74.82
2023-05-10T21:06:31.934Z,74.46
2023-05-10T21:08:58.796Z,74.60
2023-05-10T21:11:25.702Z,74.65
2023-05-10T21:13:52.652Z,74.18
2023-05-10T21:16:20.371Z,74.22
2023-05-10T21:18:47.288Z,74.21
2023-05-10T21:21:14.259Z,74.22
2023-05-10T21:23:41.144Z,73.73
2023-05-10T21:26:07.963Z,74.02
2023-05-10T21:28:34.772Z,73.72
2023-05-10T21:31:01.701Z,73.47
2023-05-10T21:33:29.036Z,73.67
2023-05-10T21:35:56.667Z,73.61
2023-05-10T21:38:23.584Z,74.06
2023-05-10T21:40:50.454Z,75.36
2023-05-10T21:43:17.312Z,75.00
2023-05-10T21:45:44.141Z,74.32
2023-05-10T21:48:11.035Z,74.19
2023-05-10T21:50:37.936Z,74.18
2023-05-10T21:53:04.935Z,74.18
2023-05-10T21:55:31.971Z,74.30
2023-05-10T21:57:58.842Z,74.27
2023-05-10T22:00:26.460Z,74.06
2023-05-10T22:02:53.452Z,74.16
2023-05-10T22:05:21.113Z,74.09
2023-05-10T22:07:47.914Z,76.64
2023-05-10T22:10:14.779Z,75.16
2023-05-10T22:12:41.645Z,74.80
2023-05-10T22:15:10.677Z,74.74
2023-05-10T22:17:39.792Z,74.52
2023-05-10T22:20:08.437Z,74.93
2023-05-10T22:22:36.470Z,75.23
2023-05-10T22:25:04.770Z,74.85
2023-05-10T22:27:31.572Z,74.73
2023-05-10T22:29:58.386Z,74.89
2023-05-10T22:32:25.619Z,74.64
2023-05-10T22:34:52.682Z,75.76
2023-05-10T22:37:19.476Z,75.47
2023-05-10T22:39:46.766Z,74.92
2023-05-10T22:42:13.555Z,75.15
2023-05-10T22:44:40.449Z,75.32
2023-05-10T22:47:08.901Z,75.94
2023-05-10T22:49:35.863Z,76.62
2023-05-10T22:52:02.771Z,76.32
2023-05-10T22:54:29.645Z,75.84
2023-05-10T22:56:57.012Z,76.20
2023-05-10T22:59:24.039Z,75.16
2023-05-10T23:01:51.011Z,75.01
2023-05-10T23:04:17.953Z,74.53
2023-05-10T23:06:45.889Z,74.28
2023-05-10T23:09:12.761Z,74.99
2023-05-10T23:11:39.592Z,75.19
2023-05-10T23:14:06.660Z,74.46
2023-05-10T23:16:33.532Z,74.43
2023-05-10T23:19:00.489Z,74.52
2023-05-10T23:21:28.766Z,73.80
2023-05-10T23:23:57.003Z,73.98
2023-05-10T23:26:23.934Z,74.10
2023-05-10T23:28:50.865Z,75.55
2023-05-10T23:31:17.659Z,74.83
2023-05-10T23:33:44.493Z,74.56
2023-05-10T23:36:11.296Z,74.65
2023-05-10T23:38:39.298Z,74.57
2023-05-10T23:41:06.267Z,74.33
2023-05-10T23:43:33.132Z,73.91
2023-05-10T23:45:59.981Z,74.32
2023-05-10T23:48:26.889Z,74.13
2023-05-10T23:50:53.708Z,74.84
2023-05-10T23:53:20.642Z,75.77
2023-05-10T23:55:47.469Z,75.19
2023-05-10T23:58:14.334Z,75.36
